createdAt,value
2022-11-19T00:01:28.745Z,97444.72
2022-11-19T00:03:55.788Z,97438.03
2022-11-19T00:06:25.517Z,97436.56
2022-11-19T00:08:52.856Z,97441.56
2022-11-19T00:11:43.376Z,97438.16
2022-11-19T00:14:15.017Z,97437.44
2022-11-19T00:16:44.046Z,97438.53
2022-11-19T00:19:12.195Z,97436.22
2022-11-19T00:21:38.803Z,97436.19
2022-11-19T00:24:05.935Z,97433.44
2022-11-19T00:26:32.613Z,97427.56
2022-11-19T00:28:59.318Z,97430.31
2022-11-19T00:31:25.952Z,97437.75
2022-11-19T00:33:54.718Z,97427.66
2022-11-19T00:36:22.758Z,97427.59
2022-11-19T00:38:49.446Z,97427.22
2022-11-19T00:41:16.184Z,97428.34
2022-11-19T00:43:49.101Z,97428.44
2022-11-19T00:46:27.009Z,97418.19
2022-11-19T00:48:55.505Z,97419.50
2022-11-19T00:51:24.050Z,97425.69
2022-11-19T00:53:50.766Z,97416.09
2022-11-19T00:58:54.057Z,97419.16
2022-11-19T01:01:22.872Z,97414.91
2022-11-19T01:03:50.128Z,97415.34
2022-11-19T01:06:19.588Z,97416.03
2022-11-19T01:08:47.673Z,97413.72
2022-11-19T01:11:18.420Z,97416.81
2022-11-19T01:13:45.540Z,97418.66
2022-11-19T01:16:15.711Z,97420.69
2022-11-19T01:18:43.708Z,97407.41
2022-11-19T01:21:12.371Z,97421.00
2022-11-19T01:26:12.504Z,97413.44
2022-11-19T01:28:39.643Z,97419.31
2022-11-19T01:31:11.891Z,97422.78
2022-11-19T01:33:39.119Z,97422.78
2022-11-19T01:36:13.374Z,97424.38
2022-11-19T01:38:40.054Z,97428.34
2022-11-19T01:44:06.507Z,97423.22
2022-11-19T01:46:35.888Z,97422.44
2022-11-19T01:49:14.631Z,97420.16
2022-11-19T01:51:57.475Z,97423.75
2022-11-19T01:54:51.572Z,97418.28
2022-11-19T01:57:19.168Z,97431.06
2022-11-19T02:02:29.368Z,97438.75
2022-11-19T02:04:57.395Z,97431.38
2022-11-19T02:07:29.656Z,97430.72
2022-11-19T02:09:58.105Z,97437.28
2022-11-19T02:12:39.602Z,97442.66
2022-11-19T02:18:34.671Z,97444.28
2022-11-19T02:24:32.401Z,97428.19
2022-11-19T02:27:30.190Z,97433.78
2022-11-19T02:30:10.361Z,97436.38
2022-11-19T02:32:48.979Z,97430.91
2022-11-19T02:35:34.417Z,97435.19
2022-11-19T02:38:22.973Z,97443.69
2022-11-19T02:41:24.508Z,97440.28
2022-11-19T02:44:14.638Z,97450.09
2022-11-19T02:46:42.539Z,97444.19
2022-11-19T02:49:12.481Z,97437.63
2022-11-19T02:51:39.349Z,97445.88
2022-11-19T02:54:06.202Z,97448.84
2022-11-19T02:56:54.343Z,97453.44
2022-11-19T02:59:58.895Z,97453.00
2022-11-19T03:02:50.509Z,97455.38
2022-11-19T03:07:55.677Z,97459.34
2022-11-19T03:10:25.508Z,97460.19
2022-11-19T03:13:21.648Z,97458.66
2022-11-19T03:16:09.360Z,97462.53
2022-11-19T03:18:52.072Z,97465.69
2022-11-19T03:21:29.533Z,97455.63
2022-11-19T03:24:09.280Z,97450.16
2022-11-19T03:26:48.284Z,97462.13
2022-11-19T03:29:15.234Z,97459.31
2022-11-19T03:31:47.814Z,97456.47
2022-11-19T03:34:20.891Z,97463.19
2022-11-19T03:36:51.271Z,97460.06
2022-11-19T03:39:20.212Z,97465.44
2022-11-19T03:41:49.693Z,97464.31
2022-11-19T03:44:25.434Z,97463.91
2022-11-19T03:46:57.953Z,97465.53
2022-11-19T03:49:31.752Z,97468.69
2022-11-19T03:52:07.555Z,97472.47
2022-11-19T03:54:34.471Z,97479.53
2022-11-19T03:57:02.697Z,97479.66
2022-11-19T03:59:30.275Z,97483.00
2022-11-19T04:02:01.566Z,97484.59
2022-11-19T04:04:37.692Z,97482.59
2022-11-19T04:07:08.802Z,97480.31
2022-11-19T04:09:35.815Z,97484.28
2022-11-19T04:12:02.751Z,97491.63
2022-11-19T04:14:29.493Z,97482.94
2022-11-19T04:16:56.582Z,97488.06
2022-11-19T04:19:23.674Z,97482.56
2022-11-19T04:21:50.576Z,97482.63
2022-11-19T04:24:17.518Z,97479.91
2022-11-19T04:26:44.137Z,97486.94
2022-11-19T04:29:10.813Z,97479.56
2022-11-19T04:31:37.483Z,97481.06
2022-11-19T04:34:04.376Z,97474.13
2022-11-19T04:36:31.029Z,97475.94
2022-11-19T04:38:57.624Z,97470.81
2022-11-19T04:41:24.252Z,97479.00
2022-11-19T04:43:50.857Z,97478.69
2022-11-19T04:46:17.488Z,97475.75
2022-11-19T04:48:44.093Z,97481.56
2022-11-19T04:51:10.732Z,97485.88
2022-11-19T04:53:37.340Z,97484.34
2022-11-19T04:56:04.258Z,97479.66
2022-11-19T04:58:30.915Z,97490.22
2022-11-19T05:00:57.527Z,97486.53
2022-11-19T05:03:24.211Z,97489.66
2022-11-19T05:05:50.884Z,97484.59
2022-11-19T05:08:17.514Z,97493.66
2022-11-19T05:10:44.748Z,97491.31
2022-11-19T05:13:11.603Z,97491.59
2022-11-19T05:15:38.264Z,97482.28
2022-11-19T05:18:04.991Z,97482.72
2022-11-19T05:20:31.732Z,97483.88
2022-11-19T05:22:58.378Z,97489.41
2022-11-19T05:25:24.955Z,97484.94
2022-11-19T05:27:51.840Z,97483.47
2022-11-19T05:30:18.687Z,97483.88
2022-11-19T05:32:45.355Z,97484.38
2022-11-19T05:35:12.012Z,97484.97
2022-11-19T05:37:38.793Z,97481.56
2022-11-19T05:40:05.998Z,97492.75
2022-11-19T05:42:32.634Z,97481.47
2022-11-19T05:44:59.249Z,97481.06
2022-11-19T05:49:57.177Z,97496.56
2022-11-19T05:52:23.826Z,97488.81
2022-11-19T05:54:50.521Z,97493.25
2022-11-19T05:57:17.189Z,97494.25
2022-11-19T05:59:44.349Z,97493.13
2022-11-19T06:02:11.528Z,97496.19
2022-11-19T06:04:38.403Z,97498.94
2022-11-19T06:07:05.128Z,97495.59
2022-11-19T06:09:32.737Z,97491.41
2022-11-19T06:11:59.371Z,97503.00
2022-11-19T06:14:27.178Z,97500.88
2022-11-19T06:16:58.420Z,97500.53
2022-11-19T06:19:25.950Z,97505.13
2022-11-19T06:21:53.340Z,97512.09
2022-11-19T06:24:20.753Z,97506.72
2022-11-19T06:26:47.423Z,97513.50
2022-11-19T06:29:15.201Z,97510.34
2022-11-19T06:31:42.089Z,97515.31
2022-11-19T06:34:09.124Z,97516.09
2022-11-19T06:36:40.439Z,97524.47
2022-11-19T06:39:09.865Z,97523.25
2022-11-19T06:44:08.699Z,97527.63
2022-11-19T06:46:35.355Z,97524.59
2022-11-19T06:49:03.864Z,97533.63
2022-11-19T06:51:30.677Z,97532.41
2022-11-19T06:53:57.366Z,97533.34
2022-11-19T06:56:23.985Z,97530.97
2022-11-19T07:01:28.499Z,97531.69
2022-11-19T07:03:55.181Z,97540.19
2022-11-19T07:06:21.830Z,97543.63
2022-11-19T07:08:48.791Z,97547.09
2022-11-19T07:11:27.695Z,97552.06
2022-11-19T07:13:58.344Z,97553.06
2022-11-19T07:16:27.250Z,97546.19
2022-11-19T07:18:54.203Z,97552.06
2022-11-19T07:21:20.972Z,97554.91
2022-11-19T07:23:47.661Z,97564.63
2022-11-19T07:26:15.006Z,97561.81
2022-11-19T07:28:42.094Z,97566.53
2022-11-19T07:31:09.181Z,97568.88
2022-11-19T07:33:36.557Z,97566.44
2022-11-19T07:36:03.292Z,97571.97
2022-11-19T07:38:35.630Z,97574.28
2022-11-19T07:41:24.291Z,97566.53
2022-11-19T07:43:51.165Z,97571.41
2022-11-19T07:46:17.817Z,97573.28
2022-11-19T07:48:44.534Z,97570.03
2022-11-19T07:51:11.170Z,97577.69
2022-11-19T07:53:37.774Z,97574.72
2022-11-19T07:56:04.594Z,97574.31
2022-11-19T07:58:31.253Z,97577.38
2022-11-19T08:00:57.867Z,97573.41
2022-11-19T08:03:24.478Z,97579.50
2022-11-19T08:05:51.135Z,97582.75
2022-11-19T08:08:17.731Z,97587.50
2022-11-19T08:10:44.344Z,97582.75
2022-11-19T08:13:11.016Z,97582.22
2022-11-19T08:15:37.653Z,97587.31
2022-11-19T08:18:13.360Z,97582.78
2022-11-19T08:20:44.241Z,97590.25
2022-11-19T08:23:11.696Z,97585.28
2022-11-19T08:25:38.688Z,97582.91
2022-11-19T08:28:05.888Z,97590.63
2022-11-19T08:30:33.990Z,97587.63
2022-11-19T08:33:00.676Z,97590.38
2022-11-19T08:35:27.731Z,97592.22
2022-11-19T08:37:54.462Z,97600.75
2022-11-19T08:40:21.079Z,97592.16
2022-11-19T08:43:02.983Z,97601.75
2022-11-19T08:45:38.377Z,97604.97
2022-11-19T08:48:10.634Z,97600.63
2022-11-19T08:50:37.682Z,97606.09
2022-11-19T08:53:05.609Z,97604.56
2022-11-19T08:55:32.909Z,97605.31
2022-11-19T08:58:04.116Z,97606.53
2022-11-19T09:00:31.863Z,97615.84
2022-11-19T09:02:58.513Z,97622.09
2022-11-19T09:05:25.590Z,97611.97
2022-11-19T09:07:52.335Z,97617.41
2022-11-19T09:10:19.029Z,97619.81
2022-11-19T09:12:45.914Z,97617.19
2022-11-19T09:17:47.058Z,97630.78
2022-11-19T09:20:14.171Z,97629.59
2022-11-19T09:22:40.994Z,97633.06
2022-11-19T09:25:09.169Z,97635.81
2022-11-19T09:27:37.116Z,97637.53
2022-11-19T09:30:05.728Z,97641.28
2022-11-19T09:32:33.653Z,97641.09
2022-11-19T09:35:00.656Z,97643.78
2022-11-19T09:40:02.602Z,97649.41
2022-11-19T09:42:47.987Z,97644.28
2022-11-19T09:45:22.654Z,97650.09
2022-11-19T09:48:23.396Z,97646.56
2022-11-19T09:51:00.637Z,97649.41
2022-11-19T09:53:32.965Z,97647.09
2022-11-19T09:56:00.628Z,97648.28
2022-11-19T09:58:38.565Z,97649.81
2022-11-19T10:01:05.579Z,97644.72
2022-11-19T10:03:33.921Z,97640.03
2022-11-19T10:06:09.474Z,97636.97
2022-11-19T10:09:18.344Z,97640.00
2022-11-19T10:12:11.806Z,97639.94
2022-11-19T10:15:02.932Z,97642.88
2022-11-19T10:17:41.954Z,97633.97
2022-11-19T10:20:43.560Z,97631.19
2022-11-19T10:23:13.121Z,97631.56
2022-11-19T10:25:44.716Z,97626.97
2022-11-19T10:28:14.929Z,97629.63
2022-11-19T10:30:48.512Z,97634.31
2022-11-19T10:33:25.862Z,97621.03
2022-11-19T10:35:59.898Z,97625.00
2022-11-19T10:38:29.056Z,97625.75
2022-11-19T10:41:04.766Z,97630.81
2022-11-19T10:43:36.962Z,97618.44
2022-11-19T10:46:06.752Z,97630.31
2022-11-19T10:48:41.810Z,97629.13
2022-11-19T10:51:24.147Z,97628.81
2022-11-19T10:53:55.876Z,97624.63
2022-11-19T10:56:27.711Z,97617.66
2022-11-19T10:58:58.372Z,97621.63
2022-11-19T11:01:38.088Z,97619.47
2022-11-19T11:04:11.951Z,97616.69
2022-11-19T11:07:01.174Z,97614.72
2022-11-19T11:09:37.981Z,97616.25
2022-11-19T11:12:30.142Z,97623.56
2022-11-19T11:15:07.453Z,97620.38
2022-11-19T11:17:36.702Z,97618.84
2022-11-19T11:20:21.269Z,97618.41
2022-11-19T11:22:50.907Z,97615.22
2022-11-19T11:25:23.430Z,97623.78
2022-11-19T11:28:05.950Z,97623.69
2022-11-19T11:30:32.921Z,97608.09
2022-11-19T11:33:25.915Z,97622.91
2022-11-19T11:35:55.688Z,97621.72
2022-11-19T11:38:25.380Z,97618.06
2022-11-19T11:41:44.001Z,97617.50
2022-11-19T11:44:03.095Z,97623.22
2022-11-19T11:46:38.526Z,97622.13
2022-11-19T11:49:12.757Z,97623.25
2022-11-19T11:51:40.104Z,97619.75
2022-11-19T11:54:18.336Z,97622.38
2022-11-19T11:56:45.870Z,97615.75
2022-11-19T11:59:28.959Z,97611.84
2022-11-19T12:02:04.077Z,97618.13
2022-11-19T12:07:35.036Z,97615.72
2022-11-19T12:12:54.384Z,97615.72
2022-11-19T12:15:59.807Z,97611.31
2022-11-19T12:18:48.446Z,97622.25
2022-11-19T12:21:20.826Z,97627.97
2022-11-19T12:24:19.745Z,97628.28
2022-11-19T12:26:55.236Z,97623.91
2022-11-19T12:29:47.855Z,97627.09
2022-11-19T12:32:57.353Z,97619.38
2022-11-19T12:35:26.850Z,97615.41
2022-11-19T12:38:12.766Z,97622.81
2022-11-19T12:40:49.402Z,97620.78
2022-11-19T12:43:37.645Z,97622.38
2022-11-19T12:46:20.799Z,97623.25
2022-11-19T12:49:14.638Z,97625.53
2022-11-19T12:51:52.376Z,97623.13
2022-11-19T12:54:33.380Z,97621.63
2022-11-19T12:57:13.540Z,97624.44
2022-11-19T12:59:51.073Z,97628.31
2022-11-19T13:02:29.140Z,97626.31
2022-11-19T13:05:10.735Z,97627.88
2022-11-19T13:07:45.812Z,97614.25
2022-11-19T13:10:17.849Z,97620.84
2022-11-19T13:12:50.423Z,97628.28
2022-11-19T13:15:24.380Z,97624.81
2022-11-19T13:17:54.562Z,97625.66
2022-11-19T13:20:27.754Z,97626.03
2022-11-19T13:22:59.661Z,97620.63
2022-11-19T13:25:35.116Z,97624.56
2022-11-19T13:28:05.663Z,97622.94
2022-11-19T13:30:35.028Z,97624.88
2022-11-19T13:33:19.895Z,97623.75
2022-11-19T13:36:00.434Z,97625.19
2022-11-19T13:38:45.167Z,97627.75
2022-11-19T13:41:20.778Z,97624.91
2022-11-19T13:44:14.224Z,97628.72
2022-11-19T13:46:52.812Z,97629.59
2022-11-19T13:49:27.970Z,97624.16
2022-11-19T13:52:01.692Z,97619.44
2022-11-19T13:54:35.289Z,97616.38
2022-11-19T13:57:03.385Z,97630.34
2022-11-19T13:59:47.806Z,97622.19
2022-11-19T14:02:45.346Z,97619.78
2022-11-19T14:08:11.320Z,97615.22
2022-11-19T14:11:04.439Z,97623.34
2022-11-19T14:13:58.757Z,97625.53
2022-11-19T14:16:57.522Z,97627.44
2022-11-19T14:19:42.896Z,97631.19
2022-11-19T14:22:57.320Z,97628.84
2022-11-19T14:26:02.526Z,97625.34
2022-11-19T14:28:48.048Z,97621.34
2022-11-19T14:31:16.729Z,97635.03
2022-11-19T14:33:49.216Z,97628.81
2022-11-19T14:36:28.091Z,97633.09
2022-11-19T14:38:58.874Z,97628.91
2022-11-19T14:41:31.782Z,97633.16
2022-11-19T14:44:24.209Z,97626.09
2022-11-19T14:46:51.207Z,97626.88
2022-11-19T14:49:46.722Z,97636.25
2022-11-19T14:52:26.307Z,97642.03
2022-11-19T14:55:00.127Z,97640.50
2022-11-19T14:57:34.061Z,97652.97
2022-11-19T15:00:07.155Z,97644.31
2022-11-19T15:02:40.106Z,97650.94
2022-11-19T15:05:06.901Z,97655.16
2022-11-19T15:07:33.525Z,97646.56
2022-11-19T15:10:09.285Z,97656.91
2022-11-19T15:12:44.835Z,97657.38
2022-11-19T15:15:20.268Z,97659.66
2022-11-19T15:18:09.376Z,97656.94
2022-11-19T15:21:01.705Z,97652.00
2022-11-19T15:23:40.488Z,97654.72
2022-11-19T15:26:48.324Z,97655.56
2022-11-19T15:29:52.459Z,97652.22
2022-11-19T15:32:50.582Z,97652.78
2022-11-19T15:35:58.907Z,97647.94
2022-11-19T15:38:36.006Z,97657.13
2022-11-19T15:41:04.897Z,97650.16
2022-11-19T15:43:40.313Z,97649.72
2022-11-19T15:46:19.117Z,97647.19
2022-11-19T15:48:51.648Z,97658.72
2022-11-19T15:54:06.188Z,97661.91
2022-11-19T15:56:37.237Z,97659.03
2022-11-19T15:59:06.424Z,97663.38
2022-11-19T16:01:34.635Z,97667.19
2022-11-19T16:04:07.709Z,97660.09
2022-11-19T16:06:37.049Z,97660.75
2022-11-19T16:09:07.430Z,97663.50
2022-11-19T16:11:55.499Z,97666.91
2022-11-19T16:14:46.013Z,97673.28
2022-11-19T16:20:06.578Z,97671.59
2022-11-19T16:25:27.519Z,97665.53
2022-11-19T16:27:57.231Z,97676.53
2022-11-19T16:30:26.958Z,97674.69
2022-11-19T16:32:58.277Z,97681.84
2022-11-19T16:38:14.696Z,97688.84
2022-11-19T16:41:00.438Z,97690.44
2022-11-19T16:43:27.896Z,97686.84
2022-11-19T16:45:55.257Z,97692.25
2022-11-19T16:48:42.955Z,97687.22
2022-11-19T16:51:37.066Z,97686.94
2022-11-19T16:54:06.399Z,97686.19
2022-11-19T16:56:51.197Z,97694.66
2022-11-19T16:59:21.563Z,97688.66
2022-11-19T17:01:54.488Z,97692.25
2022-11-19T17:04:23.626Z,97694.88
2022-11-19T17:06:50.453Z,97692.72
2022-11-19T17:09:33.768Z,97698.19
2022-11-19T17:12:18.340Z,97698.31
2022-11-19T17:14:53.905Z,97709.50
2022-11-19T17:17:41.239Z,97705.13
2022-11-19T17:20:26.963Z,97700.25
2022-11-19T17:22:54.274Z,97704.06
2022-11-19T17:25:20.917Z,97710.69
2022-11-19T17:27:53.089Z,97715.41
2022-11-19T17:30:23.663Z,97716.25
2022-11-19T17:33:03.053Z,97718.16
2022-11-19T17:35:40.802Z,97718.50
2022-11-19T17:38:28.001Z,97725.13
2022-11-19T17:40:58.131Z,97722.91
2022-11-19T17:43:58.885Z,97719.38
2022-11-19T17:46:28.458Z,97726.13
2022-11-19T17:48:55.264Z,97724.34
2022-11-19T17:51:24.401Z,97719.53
2022-11-19T17:56:30.602Z,97734.94
2022-11-19T17:58:59.739Z,97725.38
2022-11-19T18:01:26.882Z,97724.59
2022-11-19T18:03:53.665Z,97734.38
2022-11-19T18:06:20.265Z,97743.63
2022-11-19T18:08:46.997Z,97737.69
2022-11-19T18:11:21.749Z,97734.75
2022-11-19T18:13:51.309Z,97740.38
2022-11-19T18:16:20.531Z,97744.22
2022-11-19T18:18:47.365Z,97738.47
2022-11-19T18:21:16.052Z,97735.28
2022-11-19T18:23:43.916Z,97739.78
2022-11-19T18:26:17.432Z,97743.25
2022-11-19T18:28:47.774Z,97747.25
2022-11-19T18:31:27.512Z,97733.25
2022-11-19T18:33:55.698Z,97731.41
2022-11-19T18:36:24.508Z,97732.34
2022-11-19T18:38:52.377Z,97740.06
2022-11-19T18:41:19.170Z,97738.44
2022-11-19T18:44:05.072Z,97741.28
2022-11-19T18:46:32.001Z,97748.44
2022-11-19T18:48:58.659Z,97747.91
2022-11-19T18:51:28.876Z,97744.38
2022-11-19T18:53:55.493Z,97745.91
2022-11-19T18:56:22.161Z,97750.63
2022-11-19T18:58:48.944Z,97749.63
2022-11-19T19:01:17.281Z,97748.81
2022-11-19T19:03:44.925Z,97743.94
2022-11-19T19:06:12.279Z,97745.72
2022-11-19T19:08:39.233Z,97752.19
2022-11-19T19:11:26.813Z,97753.56
2022-11-19T19:13:53.806Z,97762.34
2022-11-19T19:16:21.179Z,97760.03
2022-11-19T19:18:47.967Z,97757.69
2022-11-19T19:21:16.726Z,97761.91
2022-11-19T19:23:43.627Z,97762.56
2022-11-19T19:26:12.042Z,97765.28
2022-11-19T19:28:39.339Z,97763.84
2022-11-19T19:31:06.183Z,97764.94
2022-11-19T19:33:33.432Z,97771.91
2022-11-19T19:36:03.245Z,97773.22
2022-11-19T19:38:30.047Z,97770.13
2022-11-19T19:41:04.226Z,97775.72
2022-11-19T19:43:31.163Z,97770.94
2022-11-19T19:46:16.393Z,97774.91
2022-11-19T19:48:44.959Z,97783.34
2022-11-19T19:51:13.528Z,97775.06
2022-11-19T19:53:41.940Z,97783.94
2022-11-19T19:56:24.930Z,97785.50
2022-11-19T19:58:52.073Z,97787.78
2022-11-19T20:01:21.651Z,97791.16
2022-11-19T20:03:53.198Z,97791.22
2022-11-19T20:06:23.169Z,97799.59
2022-11-19T20:08:50.021Z,97800.75
2022-11-19T20:11:20.076Z,97802.97
2022-11-19T20:16:21.945Z,97803.47
2022-11-19T20:18:50.034Z,97809.47
2022-11-19T20:21:19.795Z,97806.69
2022-11-19T20:23:47.245Z,97815.75
2022-11-19T20:26:22.888Z,97815.69
2022-11-19T20:29:01.479Z,97805.31
2022-11-19T20:34:05.063Z,97814.97
2022-11-19T20:36:33.980Z,97805.81
2022-11-19T20:39:01.135Z,97818.25
2022-11-19T20:41:47.527Z,97804.53
2022-11-19T20:44:22.875Z,97812.09
2022-11-19T20:46:54.275Z,97829.69
2022-11-19T20:49:26.165Z,97823.81
2022-11-19T20:51:53.446Z,97810.47
2022-11-19T20:54:21.730Z,97820.75
2022-11-19T20:56:49.663Z,97827.03
2022-11-19T20:59:16.785Z,97827.97
2022-11-19T21:01:43.476Z,97834.94
2022-11-19T21:04:11.911Z,97825.03
2022-11-19T21:06:39.227Z,97828.53
2022-11-19T21:09:06.364Z,97839.94
2022-11-19T21:11:35.812Z,97839.75
2022-11-19T21:14:03.425Z,97849.81
2022-11-19T21:16:30.182Z,97845.13
2022-11-19T21:18:56.977Z,97836.63
2022-11-19T21:21:26.769Z,97839.41
2022-11-19T21:23:54.296Z,97836.81
2022-11-19T21:26:23.407Z,97841.34
2022-11-19T21:28:52.536Z,97837.41
2022-11-19T21:31:21.563Z,97829.88
2022-11-19T21:33:48.355Z,97835.16
2022-11-19T21:38:52.403Z,97844.78
2022-11-19T21:41:19.069Z,97835.47
2022-11-19T21:43:45.790Z,97836.56
2022-11-19T21:46:13.085Z,97832.69
2022-11-19T21:48:39.742Z,97836.41
2022-11-19T21:51:07.815Z,97831.31
2022-11-19T21:53:35.548Z,97835.84
2022-11-19T21:56:02.728Z,97836.03
2022-11-19T21:58:29.522Z,97834.53
2022-11-19T22:01:04.329Z,97836.41
2022-11-19T22:03:32.661Z,97841.38
2022-11-19T22:06:04.584Z,97841.75
2022-11-19T22:08:32.975Z,97844.34
2022-11-19T22:11:00.402Z,97840.84
2022-11-19T22:13:27.098Z,97838.94
2022-11-19T22:16:03.207Z,97833.53
2022-11-19T22:18:29.845Z,97838.03
2022-11-19T22:21:02.821Z,97847.13
2022-11-19T22:23:30.186Z,97845.13
2022-11-19T22:25:57.232Z,97841.44
2022-11-19T22:28:23.955Z,97845.63
2022-11-19T22:30:54.588Z,97848.44
2022-11-19T22:33:21.605Z,97840.41
2022-11-19T22:35:48.331Z,97842.75
2022-11-19T22:38:15.808Z,97836.56
2022-11-19T22:40:42.494Z,97827.63
2022-11-19T22:43:09.193Z,97830.16
2022-11-19T22:45:35.931Z,97824.84
2022-11-19T22:48:02.591Z,97820.53
2022-11-19T22:50:29.223Z,97826.19
2022-11-19T22:52:55.849Z,97823.69
2022-11-19T22:55:22.472Z,97822.34
2022-11-19T22:57:49.109Z,97826.94
2022-11-19T23:00:38.716Z,97818.03
2022-11-19T23:03:05.629Z,97827.03
2022-11-19T23:05:37.048Z,97825.97
2022-11-19T23:08:05.957Z,97830.81
2022-11-19T23:10:33.837Z,97828.16
2022-11-19T23:13:20.229Z,97829.75
2022-11-19T23:18:33.499Z,97834.56
2022-11-19T23:21:06.187Z,97825.69
2022-11-19T23:23:32.981Z,97829.31
2022-11-19T23:26:01.288Z,97831.91
2022-11-19T23:31:10.651Z,97831.84
2022-11-19T23:33:37.415Z,97821.44
2022-11-19T23:38:39.395Z,97831.81
2022-11-19T23:41:08.735Z,97827.56
2022-11-19T23:43:36.480Z,97818.97
2022-11-19T23:46:06.970Z,97835.75
2022-11-19T23:48:34.692Z,97830.03
2022-11-19T23:51:02.694Z,97828.16
2022-11-19T23:53:29.545Z,97823.25
2022-11-19T23:55:56.231Z,97825.41
2022-11-19T23:58:23.113Z,97819.75
